Domov               UVHVVR             MKGP            O straneh              
ZDRAVSTVENO VARSTVO RASTLIN
  MREŽA AGROMET. POSTAJ
 ► PROGNOSTIČNA OBVESTILA
AGROMETEOROLOŠKI PODATKI -
ARSO
OBVLADOVANJE TVEGANJ ZARADI
NEUGODNIH VREMENSKIH RAZMER
  ► NARAVNE NESREČE
  ► SUŠA/MOČA
  ► NAMAKANJE
  ► ŽLED (gozdarstvo)
KARTOGRAFSKI PRIKAZI
SPLETNE POVEZAVE
PROJEKTI IN PUBLIKACIJE

AGROMETEOROLOŠKA MREŽA: VREMENSKE POSTAJE IN FENOLOŠKA OPAZOVANJA

Pregled podatkov za lokacijo Otočec, meteorološka postaja 37169

Pregled senzorjev na lokaciji

ID Ime Zadnja
vrednost
Datum
zadnje
spremembe
Tip
senzorja
3926 Omočenost lista (U) 0 U 19.7.2018 21:45 A730WET
3927 Padavine (mm) 0 mm 19.7.2018 21:45 Rain-O-Matic
3924 Relativna vlaga 2 m (% RH) 85,13 % RH 19.7.2018 21:45 50YA
3925 Temperatura 2 m (°C) 20,39 °C 19.7.2018 21:45 50YA

Pregled podatkov zadnjih 24 ur

Zap.
št.
Datum in čas Otočec
Omočenost
lista
Padavine Relativna
vlaga
2
m
Temperatura
2
m
1 19.7.2018 23:30
2 19.7.2018 23:00
3 19.7.2018 22:30
4 19.7.2018 22:00
5 19.7.2018 21:30
6 19.7.2018 21:00 0 0 85,1 20,4
7 19.7.2018 20:30 0 0 80,1 21,3
8 19.7.2018 20:00 0 0 77,6 22,1
9 19.7.2018 19:30 0 0 74,8 23,2
10 19.7.2018 19:00 0 0 69 24,9
11 19.7.2018 18:30 0 0 65,1 25,9
12 19.7.2018 18:00 0 0 57,4 28
13 19.7.2018 17:30 0 0 52,2 30,2
14 19.7.2018 17:00 0 0 46,7 32
15 19.7.2018 16:30 0 0 41,3 32,9
16 19.7.2018 16:00 0 0 38,9 32,8
17 19.7.2018 15:30 0 0 42,5 32
18 19.7.2018 15:00 0 0 42,3 32,1
19 19.7.2018 14:30 0 0 43,1 31,1
20 19.7.2018 14:00 0 0 46,9 31,3
21 19.7.2018 13:30 0 0 46,5 31,1
22 19.7.2018 13:00 0 0 46,1 30,9
23 19.7.2018 12:30 0 0 50 30,6
24 19.7.2018 12:00 0 0 51,2 29,7
25 19.7.2018 11:30 0 0 50,9 29,2
26 19.7.2018 11:00 0 0 55 28,4
27 19.7.2018 10:30 0 0 59,6 27,9
28 19.7.2018 10:00 0 0 59,6 27,4
29 19.7.2018 09:30 0 0 66,4 26,5
30 19.7.2018 09:00 0 0 68,9 25,1
31 19.7.2018 08:30 0 0 72,3 23,8
32 19.7.2018 08:00 0 0 74,6 22,6
33 19.7.2018 07:30 0 0 77,3 21,9
34 19.7.2018 07:00 0 0 91,6 18,8
35 19.7.2018 06:30 0 0 99,8 16,3
36 19.7.2018 06:00 0 0 99,9 15,5
37 19.7.2018 05:30 0 0 99,9 15,1
38 19.7.2018 05:00 0 0 99,9 15
39 19.7.2018 04:30 0 0 99,9 14,7
40 19.7.2018 04:00 0 0 99,7 15
41 19.7.2018 03:30 0 0 99,5 15,1
42 19.7.2018 03:00 0 0 99,3 15,2
43 19.7.2018 02:30 0 0 98,9 15,5
44 19.7.2018 02:00 0 0 98,3 15,8
45 19.7.2018 01:30 0 0 97,8 16,6
46 19.7.2018 01:00 0 0 96,8 16,9
47 19.7.2018 00:30 0 0 95,6 17,4
48 19.7.2018 00:00 0 0 96,5 17,3
© 2011 Ministrstvo za kmetijstvo, gozdarstvo in prehrano. Vse pravice pridržane.